createdAt,value
2022-08-10T00:00:36.747Z,99671.50
2022-08-10T00:03:04.671Z,99658.94
2022-08-10T00:05:43.204Z,99657.59
2022-08-10T00:08:11.818Z,99658.19
2022-08-10T00:10:49.818Z,99660.94
2022-08-10T00:13:16.751Z,99648.72
2022-08-10T00:15:52.670Z,99659.06
2022-08-10T00:18:35.711Z,99658.56
2022-08-10T00:21:08.136Z,99666.69
2022-08-10T00:23:36.722Z,99661.22
2022-08-10T00:26:05.615Z,99659.88
2022-08-10T00:28:32.702Z,99656.34
2022-08-10T00:30:59.901Z,99660.94
2022-08-10T00:33:27.719Z,99659.31
2022-08-10T00:35:55.934Z,99673.50
2022-08-10T00:38:23.197Z,99679.78
2022-08-10T00:40:52.084Z,99652.19
2022-08-10T00:43:23.973Z,99667.75
2022-08-10T00:45:59.465Z,99664.78
2022-08-10T00:48:31.203Z,99665.00
2022-08-10T00:51:01.702Z,99668.84
2022-08-10T00:53:29.172Z,99655.97
2022-08-10T00:57:12.302Z,99666.94
2022-08-10T00:58:44.268Z,99658.19
2022-08-10T01:02:07.740Z,99659.81
2022-08-10T01:04:54.365Z,99658.72
2022-08-10T01:06:57.699Z,99654.06
2022-08-10T01:09:56.903Z,99657.91
2022-08-10T01:12:56.995Z,99658.50
2022-08-10T01:15:39.387Z,99661.53
2022-08-10T01:18:25.421Z,99662.63
2022-08-10T01:21:23.619Z,99647.63
2022-08-10T01:24:25.100Z,99660.22
2022-08-10T01:27:28.859Z,99653.41
2022-08-10T01:30:14.309Z,99666.28
2022-08-10T01:33:05.706Z,99655.94
2022-08-10T01:35:41.684Z,99653.78
2022-08-10T01:38:19.105Z,99655.75
2022-08-10T01:40:55.436Z,99663.69
2022-08-10T01:43:27.988Z,99667.53
2022-08-10T01:45:59.715Z,99668.91
2022-08-10T01:48:39.694Z,99666.19
2022-08-10T01:51:31.127Z,99666.47
2022-08-10T01:54:01.712Z,99666.53
2022-08-10T01:56:34.313Z,99681.03
2022-08-10T01:59:32.883Z,99672.31
2022-08-10T02:02:03.965Z,99674.22
2022-08-10T02:04:36.091Z,99683.25
2022-08-10T02:07:04.224Z,99682.44
2022-08-10T02:09:36.356Z,99683.81
2022-08-10T02:12:08.939Z,99682.94
2022-08-10T02:14:42.747Z,99690.06
2022-08-10T02:17:58.153Z,99688.41
2022-08-10T02:20:11.372Z,99698.25
2022-08-10T02:22:43.450Z,99691.44
2022-08-10T02:25:40.647Z,99697.97
2022-08-10T02:28:03.409Z,99681.03
2022-08-10T02:30:31.414Z,99678.81
2022-08-10T02:33:00.274Z,99681.50
2022-08-10T02:35:29.179Z,99699.31
2022-08-10T02:38:17.690Z,99687.47
2022-08-10T02:45:01.158Z,99690.44
2022-08-10T02:45:23.507Z,99698.88
2022-08-10T02:46:55.858Z,99687.66
2022-08-10T02:49:29.591Z,99689.28
2022-08-10T02:52:06.997Z,99694.97
2022-08-10T02:54:47.588Z,99690.06
2022-08-10T02:57:22.183Z,99689.75
2022-08-10T02:59:52.626Z,99686.50
2022-08-10T03:02:30.843Z,99696.56
2022-08-10T03:05:04.195Z,99703.69
2022-08-10T03:07:42.950Z,99707.44
2022-08-10T03:10:26.781Z,99695.09
2022-08-10T03:12:59.592Z,99700.56
2022-08-10T03:15:29.898Z,99696.72
2022-08-10T03:17:58.987Z,99703.03
2022-08-10T03:20:39.597Z,99698.06
2022-08-10T03:23:18.077Z,99691.19
2022-08-10T03:25:54.270Z,99707.53
2022-08-10T03:28:23.723Z,99682.31
2022-08-10T03:30:52.135Z,99696.13
2022-08-10T03:33:21.130Z,99692.75
2022-08-10T03:36:42.532Z,99697.03
2022-08-10T03:38:35.942Z,99697.81
2022-08-10T03:41:06.662Z,99698.53
2022-08-10T03:43:34.433Z,99701.81
2022-08-10T03:46:06.297Z,99715.50
2022-08-10T03:48:48.453Z,99696.47
2022-08-10T03:51:22.281Z,99703.34
2022-08-10T03:54:05.458Z,99706.06
2022-08-10T03:56:38.853Z,99707.16
2022-08-10T03:59:08.226Z,99696.00
2022-08-10T04:02:41.897Z,99688.22
2022-08-10T04:04:25.687Z,99684.91
2022-08-10T04:06:57.314Z,99703.03
2022-08-10T04:09:54.227Z,99700.84
2022-08-10T04:12:19.535Z,99696.16
2022-08-10T04:14:52.812Z,99665.00
2022-08-10T04:18:03.843Z,99680.56
2022-08-10T04:20:34.328Z,99683.16
2022-08-10T04:23:06.732Z,99696.59
2022-08-10T04:25:36.696Z,99694.97
2022-08-10T04:28:04.387Z,99712.16
2022-08-10T04:30:32.639Z,99695.41
2022-08-10T04:33:03.788Z,99703.44
2022-08-10T04:35:32.883Z,99729.16
2022-08-10T04:38:02.597Z,99713.28
2022-08-10T04:40:31.315Z,99702.09
2022-08-10T04:43:12.357Z,99711.97
2022-08-10T04:45:49.795Z,99728.13
2022-08-10T04:48:42.867Z,99720.44
2022-08-10T04:51:18.900Z,99724.78
2022-08-10T04:54:05.184Z,99718.22
2022-08-10T04:56:40.709Z,99721.47
2022-08-10T04:59:57.641Z,99725.53
2022-08-10T05:02:37.297Z,99724.84
2022-08-10T05:05:09.842Z,99714.91
2022-08-10T05:07:54.246Z,99697.13
2022-08-10T05:23:27.233Z,99681.94
2022-08-10T05:26:09.517Z,99673.91
2022-08-10T05:28:36.968Z,99693.88
2022-08-10T05:31:08.920Z,99672.69
2022-08-10T05:33:36.128Z,99674.22
2022-08-10T05:37:00.383Z,99695.28
2022-08-10T05:39:32.150Z,99680.94
2022-08-10T05:44:52.094Z,99679.00
2022-08-10T05:47:19.562Z,99678.00
2022-08-10T05:49:55.961Z,99700.97
2022-08-10T05:52:51.499Z,99706.41
2022-08-10T06:00:34.426Z,99704.06
2022-08-10T06:13:59.758Z,99730.13
2022-08-10T06:16:25.033Z,99727.16
2022-08-10T06:18:55.870Z,99741.84
2022-08-10T06:21:24.229Z,99730.22
2022-08-10T06:23:55.321Z,99741.13
2022-08-10T06:26:22.904Z,99743.44
2022-08-10T06:29:24.511Z,99750.56
2022-08-10T06:31:53.625Z,99760.31
2022-08-10T06:38:12.749Z,99731.28
2022-08-10T06:40:46.043Z,99760.00
2022-08-10T06:47:50.131Z,99750.75
2022-08-10T07:00:02.901Z,99746.38
2022-08-10T07:03:50.680Z,99748.53
2022-08-10T07:06:20.761Z,99740.34
2022-08-10T07:08:51.183Z,99746.41
2022-08-10T07:11:21.007Z,99762.50
2022-08-10T07:14:17.513Z,99761.03
2022-08-10T07:16:47.545Z,99765.59
2022-08-10T07:19:15.776Z,99748.41
2022-08-10T07:22:09.025Z,99755.94
2022-08-10T07:24:58.228Z,99749.78
2022-08-10T07:27:27.312Z,99767.94
2022-08-10T07:30:07.489Z,99761.97
2022-08-10T07:32:35.226Z,99755.00
2022-08-10T07:35:03.932Z,99764.09
2022-08-10T07:37:35.386Z,99761.34
2022-08-10T07:40:05.331Z,99765.56
2022-08-10T07:42:33.875Z,99769.13
2022-08-10T07:45:02.951Z,99768.97
2022-08-10T07:47:46.356Z,99760.53
2022-08-10T07:50:24.700Z,99762.03
2022-08-10T07:52:55.604Z,99768.97
2022-08-10T07:56:05.184Z,99776.59
2022-08-10T07:58:18.142Z,99748.63
2022-08-10T08:01:06.309Z,99761.47
2022-08-10T08:04:11.868Z,99757.38
2022-08-10T08:06:53.043Z,99749.97
2022-08-10T08:09:24.515Z,99743.16
2022-08-10T08:12:13.382Z,99754.19
2022-08-10T08:16:20.257Z,99755.66
2022-08-10T08:18:06.328Z,99755.81
2022-08-10T08:20:37.067Z,99749.34
2022-08-10T08:24:06.973Z,99725.91
2022-08-10T08:26:30.560Z,99725.97
2022-08-10T08:28:58.333Z,99742.28
2022-08-10T08:31:33.045Z,99731.31
2022-08-10T08:34:01.574Z,99736.75
2022-08-10T08:36:29.701Z,99721.25
2022-08-10T08:38:56.921Z,99732.53
2022-08-10T08:41:42.474Z,99717.81
2022-08-10T08:44:34.838Z,99740.41
2022-08-10T08:48:04.268Z,99733.53
2022-08-10T08:50:24.996Z,99731.03
2022-08-10T08:53:21.900Z,99721.94
2022-08-10T08:56:15.025Z,99727.00
2022-08-10T08:58:50.892Z,99718.47
2022-08-10T09:01:59.147Z,99721.59
2022-08-10T09:04:55.109Z,99731.59
2022-08-10T09:08:00.250Z,99711.34
2022-08-10T09:10:40.954Z,99709.91
2022-08-10T09:13:17.020Z,99709.44
2022-08-10T09:16:06.245Z,99719.72
2022-08-10T09:18:53.665Z,99715.66
2022-08-10T09:21:55.183Z,99721.31
2022-08-10T09:24:50.234Z,99707.22
2022-08-10T09:27:24.452Z,99706.25
2022-08-10T09:30:00.489Z,99699.25
2022-08-10T09:36:15.894Z,99712.75
2022-08-10T09:36:26.582Z,99701.00
2022-08-10T09:40:46.256Z,99685.03
2022-08-10T09:42:40.394Z,99687.22
2022-08-10T09:45:31.939Z,99694.06
2022-08-10T09:48:34.052Z,99697.56
2022-08-10T09:54:15.782Z,99697.09
2022-08-10T09:57:24.404Z,99688.78
2022-08-10T10:00:02.561Z,99695.34
2022-08-10T10:02:40.751Z,99700.41
2022-08-10T10:05:25.857Z,99689.63
2022-08-10T10:08:18.182Z,99703.31
2022-08-10T10:11:02.884Z,99685.88
2022-08-10T10:14:03.491Z,99688.44
2022-08-10T10:16:51.181Z,99699.19
2022-08-10T10:19:30.355Z,99686.84
2022-08-10T10:22:29.271Z,99687.06
2022-08-10T10:25:20.850Z,99688.09
2022-08-10T10:27:58.379Z,99683.47
2022-08-10T10:30:32.226Z,99684.84
2022-08-10T10:33:51.467Z,99682.28
2022-08-10T10:36:21.147Z,99691.38
2022-08-10T10:38:50.043Z,99682.00
2022-08-10T10:41:55.685Z,99675.50
2022-08-10T10:44:42.076Z,99687.19
2022-08-10T10:47:28.162Z,99692.16
2022-08-10T10:50:05.881Z,99673.44
2022-08-10T10:52:51.661Z,99685.91
2022-08-10T10:55:33.674Z,99685.78
2022-08-10T10:58:28.577Z,99694.03
2022-08-10T11:01:15.856Z,99675.31
2022-08-10T11:03:51.474Z,99686.88
2022-08-10T11:06:40.261Z,99687.94
2022-08-10T11:10:03.561Z,99680.31
2022-08-10T11:12:37.388Z,99688.09
2022-08-10T11:15:20.090Z,99695.19
2022-08-10T11:17:55.409Z,99693.72
2022-08-10T11:20:46.594Z,99677.25
2022-08-10T11:23:44.156Z,99685.91
2022-08-10T11:26:15.756Z,99699.31
2022-08-10T11:28:51.602Z,99698.06
2022-08-10T11:31:40.254Z,99697.41
2022-08-10T11:34:49.017Z,99683.75
2022-08-10T11:38:34.717Z,99679.59
2022-08-10T11:40:34.454Z,99694.13
2022-08-10T11:43:07.045Z,99681.97
2022-08-10T11:45:51.510Z,99684.84
2022-08-10T11:48:53.788Z,99680.22
2022-08-10T11:51:26.777Z,99672.19
2022-08-10T11:54:09.175Z,99669.09
2022-08-10T11:56:47.584Z,99659.41
2022-08-10T11:59:42.684Z,99682.78
2022-08-10T12:02:16.684Z,99669.28
2022-08-10T12:04:50.569Z,99672.88
2022-08-10T12:08:54.555Z,99679.47
2022-08-10T12:10:13.810Z,99685.41
2022-08-10T12:13:10.293Z,99672.13
2022-08-10T12:16:08.499Z,99677.88
2022-08-10T12:18:48.427Z,99686.16
2022-08-10T12:21:27.005Z,99691.25
2022-08-10T12:24:09.607Z,99690.09
2022-08-10T12:26:44.825Z,99682.19
2022-08-10T12:29:28.086Z,99681.22
2022-08-10T12:31:54.988Z,99679.91
2022-08-10T12:34:31.343Z,99668.13
2022-08-10T12:37:08.071Z,99674.97
2022-08-10T12:40:23.971Z,99661.28
2022-08-10T12:44:05.514Z,99660.56
2022-08-10T12:46:20.859Z,99670.53
2022-08-10T12:49:14.093Z,99679.78
2022-08-10T12:51:50.522Z,99669.72
2022-08-10T12:54:32.661Z,99668.44
2022-08-10T12:57:04.778Z,99672.72
2022-08-10T12:59:33.260Z,99667.50
2022-08-10T13:02:18.996Z,99668.03
2022-08-10T13:04:49.477Z,99673.78
2022-08-10T13:08:27.356Z,99668.53
2022-08-10T13:10:16.531Z,99681.81
2022-08-10T13:12:48.753Z,99672.88
2022-08-10T13:15:45.424Z,99663.84
2022-08-10T13:18:18.186Z,99670.88
2022-08-10T13:20:51.683Z,99676.25
2022-08-10T13:23:25.149Z,99666.19
2022-08-10T13:25:54.159Z,99660.97
2022-08-10T13:28:36.638Z,99670.66
2022-08-10T13:31:16.794Z,99672.34
2022-08-10T13:34:39.448Z,99662.28
2022-08-10T13:36:49.474Z,99657.41
2022-08-10T13:39:20.674Z,99663.25
2022-08-10T13:41:50.298Z,99664.41
2022-08-10T13:44:29.945Z,99662.16
2022-08-10T13:46:57.701Z,99664.88
2022-08-10T13:49:25.251Z,99665.38
2022-08-10T13:51:56.661Z,99664.22
2022-08-10T13:54:29.221Z,99676.50
2022-08-10T13:56:58.119Z,99675.34
2022-08-10T14:00:37.464Z,99669.97
2022-08-10T14:02:23.009Z,99670.78
2022-08-10T14:04:51.757Z,99668.22
2022-08-10T14:07:20.936Z,99660.44
2022-08-10T14:09:50.280Z,99666.41
2022-08-10T14:12:19.144Z,99664.22
2022-08-10T14:15:00.391Z,99659.09
2022-08-10T14:17:28.331Z,99658.84
2022-08-10T14:19:59.187Z,99675.88
2022-08-10T14:22:33.574Z,99674.25
2022-08-10T14:25:15.739Z,99660.13
2022-08-10T14:28:02.489Z,99671.97
2022-08-10T14:30:34.216Z,99674.22
2022-08-10T14:33:05.814Z,99670.66
2022-08-10T14:36:22.376Z,99674.09
2022-08-10T14:38:33.426Z,99666.06
2022-08-10T14:41:02.571Z,99661.47
2022-08-10T14:43:40.461Z,99666.19
2022-08-10T14:46:11.064Z,99665.28
2022-08-10T14:48:43.545Z,99669.38
2022-08-10T14:51:12.903Z,99668.56
2022-08-10T14:53:44.380Z,99668.44
2022-08-10T14:56:14.713Z,99667.88
2022-08-10T14:58:59.463Z,99684.06
2022-08-10T15:02:00.720Z,99682.59
2022-08-10T15:04:28.644Z,99678.22
2022-08-10T15:07:20.966Z,99680.19
2022-08-10T15:10:00.128Z,99672.56
2022-08-10T15:12:33.389Z,99679.41
2022-08-10T15:15:02.453Z,99691.31
2022-08-10T15:17:35.013Z,99689.81
2022-08-10T15:20:21.263Z,99680.63
2022-08-10T15:22:53.315Z,99670.63
2022-08-10T15:25:25.221Z,99675.41
2022-08-10T15:28:05.439Z,99679.53
2022-08-10T15:30:39.762Z,99677.91
2022-08-10T15:34:03.177Z,99669.50
2022-08-10T15:36:40.254Z,99689.16
2022-08-10T15:40:22.649Z,99684.97
2022-08-10T15:42:17.003Z,99688.81
2022-08-10T15:44:45.814Z,99692.94
2022-08-10T15:47:21.455Z,99682.91
2022-08-10T15:50:05.078Z,99690.16
2022-08-10T15:53:01.662Z,99678.28
2022-08-10T15:55:42.853Z,99684.59
2022-08-10T15:58:38.647Z,99685.59
2022-08-10T16:02:04.404Z,99681.09
2022-08-10T16:04:31.986Z,99686.44
2022-08-10T16:07:08.091Z,99697.78
2022-08-10T16:10:22.148Z,99702.78
2022-08-10T16:12:34.434Z,99698.59
2022-08-10T16:15:08.150Z,99704.13
2022-08-10T16:17:55.025Z,99700.31
2022-08-10T16:20:31.403Z,99700.25
2022-08-10T16:23:02.411Z,99709.19
2022-08-10T16:25:48.343Z,99708.69
2022-08-10T16:28:23.239Z,99705.94
2022-08-10T16:30:55.892Z,99697.94
2022-08-10T16:33:53.605Z,99704.69
2022-08-10T16:36:20.905Z,99704.78
2022-08-10T16:38:50.580Z,99713.72
2022-08-10T16:42:03.599Z,99721.34
2022-08-10T16:44:10.981Z,99718.63
2022-08-10T16:46:43.981Z,99724.88
2022-08-10T16:49:13.311Z,99726.91
2022-08-10T16:51:45.789Z,99733.34
2022-08-10T16:54:17.269Z,99738.88
2022-08-10T16:56:49.088Z,99742.91
2022-08-10T16:59:24.433Z,99739.13
2022-08-10T17:01:54.287Z,99743.91
2022-08-10T17:04:23.716Z,99755.91
2022-08-10T17:07:00.398Z,99756.78
2022-08-10T17:09:32.369Z,99749.31
2022-08-10T17:12:10.748Z,99762.63
2022-08-10T17:14:42.804Z,99760.22
2022-08-10T17:17:24.281Z,99755.78
2022-08-10T17:22:21.641Z,99766.00
2022-08-10T17:24:58.008Z,99767.13
2022-08-10T17:28:05.678Z,99761.13
2022-08-10T17:30:35.403Z,99767.38
2022-08-10T17:33:14.684Z,99768.13
2022-08-10T17:35:45.369Z,99772.44
2022-08-10T17:38:21.146Z,99774.59
2022-08-10T17:40:53.242Z,99777.22
2022-08-10T17:44:00.976Z,99785.97
2022-08-10T17:46:11.813Z,99789.25
2022-08-10T17:48:40.502Z,99781.94
2022-08-10T17:51:15.711Z,99776.78
2022-08-10T17:53:46.780Z,99795.63
2022-08-10T17:56:16.077Z,99789.59
2022-08-10T17:58:50.383Z,99797.06
2022-08-10T18:01:40.653Z,99787.44
2022-08-10T18:04:18.414Z,99795.38
2022-08-10T18:06:52.145Z,99785.47
2022-08-10T18:09:28.096Z,99784.31
2022-08-10T18:12:00.835Z,99783.97
2022-08-10T18:14:33.122Z,99795.78
2022-08-10T18:17:09.238Z,99793.97
2022-08-10T18:19:38.184Z,99807.41
2022-08-10T18:22:09.414Z,99792.47
2022-08-10T18:24:37.326Z,99790.03
2022-08-10T18:27:06.113Z,99789.34
2022-08-10T18:29:35.121Z,99797.44
2022-08-10T18:32:03.403Z,99795.13
2022-08-10T18:34:33.048Z,99796.06
2022-08-10T18:37:02.971Z,99806.44
2022-08-10T18:39:34.232Z,99811.22
2022-08-10T18:42:18.408Z,99802.97
2022-08-10T18:44:55.897Z,99794.84
2022-08-10T18:47:36.432Z,99791.59
2022-08-10T18:50:11.772Z,99795.00
2022-08-10T18:52:43.040Z,99790.44
2022-08-10T18:55:23.160Z,99802.06
2022-08-10T18:58:00.545Z,99798.34
2022-08-10T19:00:50.580Z,99798.16
2022-08-10T19:03:57.920Z,99785.31
2022-08-10T19:06:37.106Z,99784.00
2022-08-10T19:09:47.641Z,99796.94
2022-08-10T19:12:30.027Z,99800.66
2022-08-10T19:15:26.331Z,99801.28
2022-08-10T19:18:15.507Z,99795.22
2022-08-10T19:21:02.593Z,99815.59
2022-08-10T19:23:29.551Z,99812.34
2022-08-10T19:26:41.289Z,99816.53
2022-08-10T19:30:08.677Z,99818.28
2022-08-10T19:32:55.220Z,99815.94
2022-08-10T19:36:03.567Z,99818.50
2022-08-10T19:38:49.640Z,99816.03
2022-08-10T19:41:32.708Z,99817.50
2022-08-10T19:44:30.348Z,99823.31
2022-08-10T19:47:07.018Z,99828.91
2022-08-10T19:50:21.842Z,99818.00
2022-08-10T19:52:51.440Z,99827.19
2022-08-10T19:56:01.894Z,99823.44
2022-08-10T19:59:04.502Z,99827.13
2022-08-10T20:01:55.138Z,99835.47
2022-08-10T20:04:29.402Z,99834.97
2022-08-10T20:07:02.084Z,99831.22
2022-08-10T20:10:06.779Z,99835.09
2022-08-10T20:13:00.268Z,99837.34
2022-08-10T20:15:42.413Z,99833.25
2022-08-10T20:18:31.004Z,99836.59
2022-08-10T20:21:08.420Z,99845.47
2022-08-10T20:23:36.821Z,99841.41
2022-08-10T20:26:46.716Z,99843.66
2022-08-10T20:29:56.974Z,99851.69
2022-08-10T20:32:12.748Z,99860.03
2022-08-10T20:34:47.860Z,99856.78
2022-08-10T20:37:42.589Z,99857.41
2022-08-10T20:40:20.961Z,99849.75
2022-08-10T20:43:10.412Z,99852.81
2022-08-10T20:46:07.531Z,99841.91
2022-08-10T20:48:46.382Z,99852.59
2022-08-10T20:51:23.394Z,99857.88
2022-08-10T20:53:56.979Z,99853.00
2022-08-10T20:56:45.794Z,99855.56
2022-08-10T20:59:33.467Z,99853.38
2022-08-10T21:02:33.355Z,99856.75
2022-08-10T21:05:30.546Z,99860.72
2022-08-10T21:08:27.720Z,99854.69
2022-08-10T21:11:16.325Z,99858.03
2022-08-10T21:14:05.011Z,99859.75
2022-08-10T21:16:59.764Z,99855.69
2022-08-10T21:19:53.976Z,99860.66
2022-08-10T21:22:31.748Z,99856.91
2022-08-10T21:25:02.944Z,99851.41
2022-08-10T21:27:55.095Z,99854.75
2022-08-10T21:30:42.813Z,99856.47
2022-08-10T21:33:17.712Z,99866.44
2022-08-10T21:35:57.436Z,99864.81
2022-08-10T21:38:48.549Z,99862.63
2022-08-10T21:41:57.333Z,99861.63
2022-08-10T21:45:09.866Z,99868.53
2022-08-10T21:48:17.030Z,99857.34
2022-08-10T21:51:16.557Z,99873.59
2022-08-10T21:54:26.204Z,99869.22
2022-08-10T21:57:50.498Z,99870.94
2022-08-10T22:00:36.506Z,99871.31
2022-08-10T22:03:24.301Z,99875.97
2022-08-10T22:06:13.511Z,99873.81
2022-08-10T22:09:03.940Z,99866.19
2022-08-10T22:11:55.177Z,99877.75
2022-08-10T22:14:53.163Z,99872.06
2022-08-10T22:18:01.104Z,99878.44
2022-08-10T22:20:52.982Z,99868.06
2022-08-10T22:23:54.789Z,99874.97
2022-08-10T22:27:04.991Z,99879.13
2022-08-10T22:29:56.118Z,99886.00
2022-08-10T22:33:08.279Z,99885.75
2022-08-10T22:36:31.040Z,99887.97
2022-08-10T22:40:11.163Z,99886.13
2022-08-10T22:43:10.472Z,99882.34
2022-08-10T22:46:05.842Z,99884.84
2022-08-10T22:48:59.864Z,99884.41
2022-08-10T22:51:36.360Z,99886.63
2022-08-10T22:54:32.384Z,99881.44
2022-08-10T22:57:36.793Z,99888.59
2022-08-10T23:00:18.864Z,99897.13
2022-08-10T23:03:07.583Z,99877.72
2022-08-10T23:05:45.016Z,99885.72
2022-08-10T23:08:29.681Z,99884.91
2022-08-10T23:11:04.513Z,99887.13
2022-08-10T23:13:36.514Z,99889.03
2022-08-10T23:16:28.396Z,99890.75
2022-08-10T23:19:10.674Z,99896.00
2022-08-10T23:22:03.706Z,99892.72
2022-08-10T23:24:43.147Z,99886.22
2022-08-10T23:27:38.502Z,99882.91
2022-08-10T23:30:38.821Z,99881.59
2022-08-10T23:33:12.716Z,99885.13
2022-08-10T23:36:32.443Z,99879.13
2022-08-10T23:38:57.206Z,99891.50
2022-08-10T23:41:39.842Z,99891.78
2022-08-10T23:44:08.236Z,99886.91
2022-08-10T23:46:41.566Z,99887.72
2022-08-10T23:49:12.486Z,99888.00
2022-08-10T23:51:55.314Z,99897.34
2022-08-10T23:54:25.093Z,99893.56
2022-08-10T23:56:56.721Z,99894.13
2022-08-10T23:59:31.979Z,99902.94
